sensor_id;sensor_type;location;lat;lon;timestamp;P1;durP1;ratioP1;P2;durP2;ratioP2
22460;SDS011;11397;48.410;11.468;2023-09-07T00:04:31;2.83;;;2.72;;
22460;SDS011;11397;48.410;11.468;2023-09-07T00:09:34;2.53;;;2.53;;
22460;SDS011;11397;48.410;11.468;2023-09-07T00:14:36;2.70;;;2.70;;
22460;SDS011;11397;48.410;11.468;2023-09-07T00:19:38;2.70;;;2.70;;
22460;SDS011;11397;48.410;11.468;2023-09-07T00:24:41;2.90;;;2.80;;
22460;SDS011;11397;48.410;11.468;2023-09-07T00:29:43;2.78;;;2.67;;
22460;SDS011;11397;48.410;11.468;2023-09-07T00:34:44;2.40;;;2.40;;
22460;SDS011;11397;48.410;11.468;2023-09-07T00:39:48;2.50;;;2.50;;
22460;SDS011;11397;48.410;11.468;2023-09-07T00:44:51;3.03;;;2.92;;
22460;SDS011;11397;48.410;11.468;2023-09-07T00:49:57;3.00;;;2.90;;
22460;SDS011;11397;48.410;11.468;2023-09-07T00:55:02;2.83;;;2.72;;
22460;SDS011;11397;48.410;11.468;2023-09-07T01:00:10;2.85;;;2.75;;
22460;SDS011;11397;48.410;11.468;2023-09-07T01:05:15;3.00;;;2.90;;
22460;SDS011;11397;48.410;11.468;2023-09-07T01:10:19;2.90;;;2.80;;
22460;SDS011;11397;48.410;11.468;2023-09-07T01:15:22;2.88;;;2.78;;
22460;SDS011;11397;48.410;11.468;2023-09-07T01:20:24;3.05;;;2.95;;
22460;SDS011;11397;48.410;11.468;2023-09-07T01:25:28;2.97;;;2.88;;
22460;SDS011;11397;48.410;11.468;2023-09-07T01:30:34;2.80;;;2.70;;
22460;SDS011;11397;48.410;11.468;2023-09-07T01:35:36;2.97;;;2.88;;
22460;SDS011;11397;48.410;11.468;2023-09-07T01:40:42;3.00;;;2.90;;
22460;SDS011;11397;48.410;11.468;2023-09-07T01:45:45;2.83;;;2.72;;
22460;SDS011;11397;48.410;11.468;2023-09-07T01:50:47;3.00;;;2.90;;
22460;SDS011;11397;48.410;11.468;2023-09-07T01:55:53;2.95;;;2.85;;
22460;SDS011;11397;48.410;11.468;2023-09-07T02:00:57;2.70;;;2.70;;
22460;SDS011;11397;48.410;11.468;2023-09-07T02:06:00;2.90;;;2.80;;
22460;SDS011;11397;48.410;11.468;2023-09-07T02:11:03;2.83;;;2.72;;
22460;SDS011;11397;48.410;11.468;2023-09-07T02:16:07;2.90;;;2.80;;
22460;SDS011;11397;48.410;11.468;2023-09-07T02:21:09;2.90;;;2.80;;
22460;SDS011;11397;48.410;11.468;2023-09-07T02:26:12;3.00;;;2.90;;
22460;SDS011;11397;48.410;11.468;2023-09-07T02:31:14;2.88;;;2.78;;
22460;SDS011;11397;48.410;11.468;2023-09-07T02:36:16;2.60;;;2.60;;
22460;SDS011;11397;48.410;11.468;2023-09-07T02:41:20;2.95;;;2.85;;
22460;SDS011;11397;48.410;11.468;2023-09-07T02:46:22;2.80;;;2.70;;
22460;SDS011;11397;48.410;11.468;2023-09-07T02:51:24;2.80;;;2.70;;
22460;SDS011;11397;48.410;11.468;2023-09-07T02:56:29;2.83;;;2.72;;
22460;SDS011;11397;48.410;11.468;2023-09-07T03:01:31;3.30;;;3.20;;
22460;SDS011;11397;48.410;11.468;2023-09-07T03:06:33;2.50;;;2.50;;
22460;SDS011;11397;48.410;11.468;2023-09-07T03:11:36;2.67;;;2.60;;
22460;SDS011;11397;48.410;11.468;2023-09-07T03:16:39;2.85;;;2.75;;
22460;SDS011;11397;48.410;11.468;2023-09-07T03:21:41;2.75;;;2.70;;
22460;SDS011;11397;48.410;11.468;2023-09-07T03:26:44;2.78;;;2.70;;
22460;SDS011;11397;48.410;11.468;2023-09-07T03:31:48;3.05;;;2.95;;
22460;SDS011;11397;48.410;11.468;2023-09-07T03:36:51;3.00;;;2.90;;
22460;SDS011;11397;48.410;11.468;2023-09-07T03:41:54;3.10;;;3.00;;
22460;SDS011;11397;48.410;11.468;2023-09-07T03:46:57;2.70;;;2.67;;
22460;SDS011;11397;48.410;11.468;2023-09-07T03:51:59;2.70;;;2.65;;
22460;SDS011;11397;48.410;11.468;2023-09-07T03:57:03;3.15;;;3.05;;
22460;SDS011;11397;48.410;11.468;2023-09-07T04:02:06;2.70;;;2.65;;
22460;SDS011;11397;48.410;11.468;2023-09-07T04:07:08;2.97;;;2.88;;
22460;SDS011;11397;48.410;11.468;2023-09-07T04:12:11;2.95;;;2.85;;
22460;SDS011;11397;48.410;11.468;2023-09-07T04:17:12;2.80;;;2.70;;
22460;SDS011;11397;48.410;11.468;2023-09-07T04:22:15;2.70;;;2.70;;
22460;SDS011;11397;48.410;11.468;2023-09-07T04:27:18;3.00;;;2.90;;
22460;SDS011;11397;48.410;11.468;2023-09-07T04:32:21;2.75;;;2.67;;
22460;SDS011;11397;48.410;11.468;2023-09-07T04:37:22;2.90;;;2.80;;
22460;SDS011;11397;48.410;11.468;2023-09-07T04:42:26;2.75;;;2.70;;
22460;SDS011;11397;48.410;11.468;2023-09-07T04:47:28;3.00;;;2.90;;
22460;SDS011;11397;48.410;11.468;2023-09-07T04:52:37;2.80;;;2.70;;
22460;SDS011;11397;48.410;11.468;2023-09-07T04:57:41;2.67;;;2.67;;
22460;SDS011;11397;48.410;11.468;2023-09-07T05:02:44;2.50;;;2.50;;
22460;SDS011;11397;48.410;11.468;2023-09-07T05:07:47;3.00;;;2.90;;
22460;SDS011;11397;48.410;11.468;2023-09-07T05:12:54;3.00;;;2.90;;
22460;SDS011;11397;48.410;11.468;2023-09-07T05:17:57;2.75;;;2.67;;
22460;SDS011;11397;48.410;11.468;2023-09-07T05:22:59;2.90;;;2.80;;
22460;SDS011;11397;48.410;11.468;2023-09-07T05:28:03;2.67;;;2.63;;
22460;SDS011;11397;48.410;11.468;2023-09-07T05:33:06;2.60;;;2.60;;
22460;SDS011;11397;48.410;11.468;2023-09-07T05:38:08;2.90;;;2.80;;
22460;SDS011;11397;48.410;11.468;2023-09-07T05:43:13;2.50;;;2.50;;
22460;SDS011;11397;48.410;11.468;2023-09-07T05:48:15;2.90;;;2.80;;
22460;SDS011;11397;48.410;11.468;2023-09-07T05:53:18;2.90;;;2.80;;
22460;SDS011;11397;48.410;11.468;2023-09-07T05:58:23;3.05;;;2.95;;
22460;SDS011;11397;48.410;11.468;2023-09-07T06:03:25;2.95;;;2.85;;
22460;SDS011;11397;48.410;11.468;2023-09-07T06:08:28;3.00;;;2.90;;
22460;SDS011;11397;48.410;11.468;2023-09-07T06:13:33;2.88;;;2.78;;
22460;SDS011;11397;48.410;11.468;2023-09-07T06:18:35;2.90;;;2.80;;
22460;SDS011;11397;48.410;11.468;2023-09-07T06:23:41;2.50;;;2.50;;
22460;SDS011;11397;48.410;11.468;2023-09-07T06:28:45;3.17;;;3.08;;
22460;SDS011;11397;48.410;11.468;2023-09-07T06:33:47;3.05;;;2.95;;
22460;SDS011;11397;48.410;11.468;2023-09-07T06:38:49;2.90;;;2.80;;
22460;SDS011;11397;48.410;11.468;2023-09-07T06:43:56;2.58;;;2.58;;
22460;SDS011;11397;48.410;11.468;2023-09-07T06:48:59;2.75;;;2.67;;
22460;SDS011;11397;48.410;11.468;2023-09-07T06:54:00;2.72;;;2.70;;
22460;SDS011;11397;48.410;11.468;2023-09-07T06:59:14;2.90;;;2.80;;
22460;SDS011;11397;48.410;11.468;2023-09-07T07:04:17;3.13;;;3.03;;
22460;SDS011;11397;48.410;11.468;2023-09-07T07:09:21;2.88;;;2.78;;
22460;SDS011;11397;48.410;11.468;2023-09-07T07:14:24;2.58;;;2.58;;
22460;SDS011;11397;48.410;11.468;2023-09-07T07:19:27;3.00;;;2.90;;
22460;SDS011;11397;48.410;11.468;2023-09-07T07:24:28;2.88;;;2.78;;
22460;SDS011;11397;48.410;11.468;2023-09-07T07:29:34;2.88;;;2.78;;
22460;SDS011;11397;48.410;11.468;2023-09-07T07:34:37;3.00;;;2.90;;
22460;SDS011;11397;48.410;11.468;2023-09-07T07:39:39;2.78;;;2.70;;
22460;SDS011;11397;48.410;11.468;2023-09-07T07:44:42;2.67;;;2.58;;
22460;SDS011;11397;48.410;11.468;2023-09-07T07:49:45;2.80;;;2.72;;
22460;SDS011;11397;48.410;11.468;2023-09-07T07:54:47;2.40;;;2.40;;
22460;SDS011;11397;48.410;11.468;2023-09-07T07:59:50;2.55;;;2.55;;
22460;SDS011;11397;48.410;11.468;2023-09-07T08:04:52;2.63;;;2.63;;
22460;SDS011;11397;48.410;11.468;2023-09-07T08:09:54;2.85;;;2.78;;
22460;SDS011;11397;48.410;11.468;2023-09-07T08:14:58;2.42;;;2.42;;
22460;SDS011;11397;48.410;11.468;2023-09-07T08:20:03;2.90;;;2.80;;
22460;SDS011;11397;48.410;11.468;2023-09-07T08:25:05;2.85;;;2.75;;
22460;SDS011;11397;48.410;11.468;2023-09-07T08:30:11;3.10;;;3.00;;
22460;SDS011;11397;48.410;11.468;2023-09-07T08:35:13;3.05;;;2.95;;
22460;SDS011;11397;48.410;11.468;2023-09-07T08:40:15;2.60;;;2.60;;
22460;SDS011;11397;48.410;11.468;2023-09-07T08:45:20;2.45;;;2.45;;
22460;SDS011;11397;48.410;11.468;2023-09-07T08:50:23;2.92;;;2.83;;
22460;SDS011;11397;48.410;11.468;2023-09-07T08:55:26;2.45;;;2.45;;
22460;SDS011;11397;48.410;11.468;2023-09-07T09:00:30;2.33;;;2.33;;
22460;SDS011;11397;48.410;11.468;2023-09-07T09:05:31;2.53;;;2.53;;
22460;SDS011;11397;48.410;11.468;2023-09-07T09:10:59;2.60;;;2.60;;
22460;SDS011;11397;48.410;11.468;2023-09-07T09:16:04;2.70;;;2.70;;
22460;SDS011;11397;48.410;11.468;2023-09-07T09:21:06;2.55;;;2.55;;
22460;SDS011;11397;48.410;11.468;2023-09-07T09:26:09;2.55;;;2.55;;
22460;SDS011;11397;48.410;11.468;2023-09-07T09:31:13;2.67;;;2.67;;
22460;SDS011;11397;48.410;11.468;2023-09-07T09:36:15;2.67;;;2.67;;
22460;SDS011;11397;48.410;11.468;2023-09-07T09:41:21;2.85;;;2.78;;
22460;SDS011;11397;48.410;11.468;2023-09-07T09:46:24;2.58;;;2.58;;
22460;SDS011;11397;48.410;11.468;2023-09-07T09:51:27;2.80;;;2.70;;
22460;SDS011;11397;48.410;11.468;2023-09-07T09:56:29;3.03;;;2.92;;
22460;SDS011;11397;48.410;11.468;2023-09-07T10:01:37;3.00;;;2.90;;
22460;SDS011;11397;48.410;11.468;2023-09-07T10:06:50;3.00;;;2.90;;
22460;SDS011;11397;48.410;11.468;2023-09-07T10:11:53;2.58;;;2.58;;
22460;SDS011;11397;48.410;11.468;2023-09-07T10:16:56;2.80;;;2.70;;
22460;SDS011;11397;48.410;11.468;2023-09-07T10:22:03;2.95;;;2.85;;
22460;SDS011;11397;48.410;11.468;2023-09-07T10:27:06;2.55;;;2.55;;
22460;SDS011;11397;48.410;11.468;2023-09-07T10:32:10;2.70;;;2.70;;
22460;SDS011;11397;48.410;11.468;2023-09-07T10:37:14;2.97;;;2.88;;
22460;SDS011;11397;48.410;11.468;2023-09-07T10:42:22;2.78;;;2.70;;
22460;SDS011;11397;48.410;11.468;2023-09-07T10:47:25;2.85;;;2.75;;
22460;SDS011;11397;48.410;11.468;2023-09-07T10:52:28;3.17;;;3.08;;
22460;SDS011;11397;48.410;11.468;2023-09-07T10:57:31;2.95;;;2.85;;
22460;SDS011;11397;48.410;11.468;2023-09-07T11:02:34;3.20;;;3.10;;
22460;SDS011;11397;48.410;11.468;2023-09-07T11:07:36;2.70;;;2.65;;
22460;SDS011;11397;48.410;11.468;2023-09-07T11:12:38;2.65;;;2.63;;
22460;SDS011;11397;48.410;11.468;2023-09-07T11:17:41;2.90;;;2.80;;
22460;SDS011;11397;48.410;11.468;2023-09-07T11:22:43;2.50;;;2.50;;
22460;SDS011;11397;48.410;11.468;2023-09-07T11:27:45;2.90;;;2.80;;
22460;SDS011;11397;48.410;11.468;2023-09-07T11:32:59;2.70;;;2.65;;
22460;SDS011;11397;48.410;11.468;2023-09-07T11:38:02;3.13;;;3.03;;
22460;SDS011;11397;48.410;11.468;2023-09-07T11:43:05;2.65;;;2.63;;
22460;SDS011;11397;48.410;11.468;2023-09-07T11:48:08;2.28;;;2.28;;
22460;SDS011;11397;48.410;11.468;2023-09-07T11:53:10;2.53;;;2.53;;
22460;SDS011;11397;48.410;11.468;2023-09-07T11:58:12;2.50;;;2.50;;
22460;SDS011;11397;48.410;11.468;2023-09-07T12:03:15;2.75;;;2.72;;
22460;SDS011;11397;48.410;11.468;2023-09-07T12:08:18;2.75;;;2.72;;
22460;SDS011;11397;48.410;11.468;2023-09-07T12:13:20;2.75;;;2.70;;
22460;SDS011;11397;48.410;11.468;2023-09-07T12:18:23;2.80;;;2.70;;
22460;SDS011;11397;48.410;11.468;2023-09-07T12:23:25;2.80;;;2.70;;
22460;SDS011;11397;48.410;11.468;2023-09-07T12:28:27;2.92;;;2.83;;
22460;SDS011;11397;48.410;11.468;2023-09-07T12:33:31;2.90;;;2.80;;
22460;SDS011;11397;48.410;11.468;2023-09-07T12:38:33;2.55;;;2.55;;
22460;SDS011;11397;48.410;11.468;2023-09-07T12:43:35;2.50;;;2.50;;
22460;SDS011;11397;48.410;11.468;2023-09-07T12:48:38;2.90;;;2.80;;
22460;SDS011;11397;48.410;11.468;2023-09-07T12:53:41;2.75;;;2.72;;
22460;SDS011;11397;48.410;11.468;2023-09-07T12:58:42;3.00;;;2.90;;
22460;SDS011;11397;48.410;11.468;2023-09-07T13:03:46;3.03;;;2.92;;
22460;SDS011;11397;48.410;11.468;2023-09-07T13:08:47;2.90;;;2.80;;
22460;SDS011;11397;48.410;11.468;2023-09-07T13:14:15;2.47;;;2.47;;
22460;SDS011;11397;48.410;11.468;2023-09-07T13:19:18;2.72;;;2.65;;
22460;SDS011;11397;48.410;11.468;2023-09-07T13:24:21;2.75;;;2.65;;
22460;SDS011;11397;48.410;11.468;2023-09-07T13:29:23;2.80;;;2.72;;
22460;SDS011;11397;48.410;11.468;2023-09-07T13:34:27;2.30;;;2.30;;
22460;SDS011;11397;48.410;11.468;2023-09-07T13:39:30;2.58;;;2.58;;
22460;SDS011;11397;48.410;11.468;2023-09-07T13:44:31;2.55;;;2.55;;
22460;SDS011;11397;48.410;11.468;2023-09-07T13:49:38;2.72;;;2.63;;
22460;SDS011;11397;48.410;11.468;2023-09-07T13:54:40;2.85;;;2.75;;
22460;SDS011;11397;48.410;11.468;2023-09-07T13:59:41;2.42;;;2.42;;
22460;SDS011;11397;48.410;11.468;2023-09-07T14:04:44;2.88;;;2.78;;
22460;SDS011;11397;48.410;11.468;2023-09-07T14:09:49;2.55;;;2.55;;
22460;SDS011;11397;48.410;11.468;2023-09-07T14:14:51;2.55;;;2.55;;
22460;SDS011;11397;48.410;11.468;2023-09-07T14:19:56;2.45;;;2.45;;
22460;SDS011;11397;48.410;11.468;2023-09-07T14:24:58;2.65;;;2.58;;
22460;SDS011;11397;48.410;11.468;2023-09-07T14:30:00;2.58;;;2.58;;
22460;SDS011;11397;48.410;11.468;2023-09-07T14:35:04;2.40;;;2.40;;
22460;SDS011;11397;48.410;11.468;2023-09-07T14:40:07;2.40;;;2.40;;
22460;SDS011;11397;48.410;11.468;2023-09-07T14:45:09;2.50;;;2.50;;
22460;SDS011;11397;48.410;11.468;2023-09-07T14:50:14;2.47;;;2.47;;
22460;SDS011;11397;48.410;11.468;2023-09-07T14:55:16;2.40;;;2.40;;
22460;SDS011;11397;48.410;11.468;2023-09-07T15:00:20;2.60;;;2.60;;
22460;SDS011;11397;48.410;11.468;2023-09-07T15:05:24;2.55;;;2.55;;
22460;SDS011;11397;48.410;11.468;2023-09-07T15:10:27;2.53;;;2.53;;
22460;SDS011;11397;48.410;11.468;2023-09-07T15:15:29;2.42;;;2.42;;
22460;SDS011;11397;48.410;11.468;2023-09-07T15:20:38;2.50;;;2.50;;
22460;SDS011;11397;48.410;11.468;2023-09-07T15:25:40;2.60;;;2.50;;
22460;SDS011;11397;48.410;11.468;2023-09-07T15:30:46;2.40;;;2.40;;
22460;SDS011;11397;48.410;11.468;2023-09-07T15:35:51;2.33;;;2.33;;
22460;SDS011;11397;48.410;11.468;2023-09-07T15:40:54;2.45;;;2.45;;
22460;SDS011;11397;48.410;11.468;2023-09-07T15:45:56;2.60;;;2.60;;
22460;SDS011;11397;48.410;11.468;2023-09-07T15:51:01;2.40;;;2.40;;
22460;SDS011;11397;48.410;11.468;2023-09-07T15:56:03;2.50;;;2.50;;
22460;SDS011;11397;48.410;11.468;2023-09-07T16:01:07;2.50;;;2.50;;
22460;SDS011;11397;48.410;11.468;2023-09-07T16:06:10;2.40;;;2.40;;
22460;SDS011;11397;48.410;11.468;2023-09-07T16:11:36;2.40;;;2.40;;
22460;SDS011;11397;48.410;11.468;2023-09-07T16:16:37;2.10;;;2.10;;
22460;SDS011;11397;48.410;11.468;2023-09-07T16:21:40;2.13;;;2.13;;
22460;SDS011;11397;48.410;11.468;2023-09-07T16:26:42;2.40;;;2.40;;
22460;SDS011;11397;48.410;11.468;2023-09-07T16:31:44;2.10;;;2.10;;
22460;SDS011;11397;48.410;11.468;2023-09-07T16:36:47;2.30;;;2.30;;
22460;SDS011;11397;48.410;11.468;2023-09-07T16:41:49;2.10;;;2.10;;
22460;SDS011;11397;48.410;11.468;2023-09-07T16:46:51;2.17;;;2.17;;
22460;SDS011;11397;48.410;11.468;2023-09-07T16:51:55;2.40;;;2.40;;
22460;SDS011;11397;48.410;11.468;2023-09-07T16:56:57;2.35;;;2.35;;
22460;SDS011;11397;48.410;11.468;2023-09-07T17:01:59;2.40;;;2.40;;
22460;SDS011;11397;48.410;11.468;2023-09-07T17:07:02;2.55;;;2.45;;
22460;SDS011;11397;48.410;11.468;2023-09-07T17:12:07;2.10;;;2.10;;
22460;SDS011;11397;48.410;11.468;2023-09-07T17:17:09;2.10;;;2.10;;
22460;SDS011;11397;48.410;11.468;2023-09-07T17:22:14;2.20;;;2.20;;
22460;SDS011;11397;48.410;11.468;2023-09-07T17:27:19;2.30;;;2.30;;
22460;SDS011;11397;48.410;11.468;2023-09-07T17:32:21;2.20;;;2.20;;
22460;SDS011;11397;48.410;11.468;2023-09-07T17:37:26;2.10;;;2.03;;
22460;SDS011;11397;48.410;11.468;2023-09-07T17:42:28;2.30;;;2.30;;
22460;SDS011;11397;48.410;11.468;2023-09-07T17:47:30;2.20;;;2.20;;
22460;SDS011;11397;48.410;11.468;2023-09-07T17:52:33;2.20;;;2.20;;
22460;SDS011;11397;48.410;11.468;2023-09-07T17:57:36;2.17;;;2.17;;
22460;SDS011;11397;48.410;11.468;2023-09-07T18:02:38;2.10;;;2.10;;
22460;SDS011;11397;48.410;11.468;2023-09-07T18:07:43;2.28;;;2.28;;
22460;SDS011;11397;48.410;11.468;2023-09-07T18:12:45;2.30;;;2.30;;
22460;SDS011;11397;48.410;11.468;2023-09-07T18:17:47;2.20;;;2.20;;
22460;SDS011;11397;48.410;11.468;2023-09-07T18:22:50;2.10;;;2.10;;
22460;SDS011;11397;48.410;11.468;2023-09-07T18:27:59;2.22;;;2.22;;
22460;SDS011;11397;48.410;11.468;2023-09-07T18:33:02;2.40;;;2.30;;
22460;SDS011;11397;48.410;11.468;2023-09-07T18:38:06;2.05;;;2.05;;
22460;SDS011;11397;48.410;11.468;2023-09-07T18:43:07;2.70;;;2.70;;
22460;SDS011;11397;48.410;11.468;2023-09-07T18:48:09;2.28;;;2.28;;
22460;SDS011;11397;48.410;11.468;2023-09-07T18:53:12;2.20;;;2.20;;
22460;SDS011;11397;48.410;11.468;2023-09-07T18:58:16;2.53;;;2.53;;
22460;SDS011;11397;48.410;11.468;2023-09-07T19:03:18;2.80;;;2.70;;
22460;SDS011;11397;48.410;11.468;2023-09-07T19:08:22;2.60;;;2.60;;
22460;SDS011;11397;48.410;11.468;2023-09-07T19:13:23;2.50;;;2.50;;
22460;SDS011;11397;48.410;11.468;2023-09-07T19:18:26;3.15;;;2.95;;
22460;SDS011;11397;48.410;11.468;2023-09-07T19:23:29;2.60;;;2.60;;
22460;SDS011;11397;48.410;11.468;2023-09-07T19:28:31;2.35;;;2.35;;
22460;SDS011;11397;48.410;11.468;2023-09-07T19:33:32;2.10;;;2.10;;
22460;SDS011;11397;48.410;11.468;2023-09-07T19:38:35;2.25;;;2.25;;
22460;SDS011;11397;48.410;11.468;2023-09-07T19:43:37;2.35;;;2.25;;
22460;SDS011;11397;48.410;11.468;2023-09-07T19:48:39;2.42;;;2.42;;
22460;SDS011;11397;48.410;11.468;2023-09-07T19:53:43;2.70;;;2.60;;
22460;SDS011;11397;48.410;11.468;2023-09-07T19:58:45;2.40;;;2.40;;
22460;SDS011;11397;48.410;11.468;2023-09-07T20:03:47;2.50;;;2.50;;
22460;SDS011;11397;48.410;11.468;2023-09-07T20:08:51;2.60;;;2.60;;
22460;SDS011;11397;48.410;11.468;2023-09-07T20:13:52;2.53;;;2.53;;
22460;SDS011;11397;48.410;11.468;2023-09-07T20:18:54;2.33;;;2.33;;
22460;SDS011;11397;48.410;11.468;2023-09-07T20:23:57;2.53;;;2.53;;
22460;SDS011;11397;48.410;11.468;2023-09-07T20:28:59;2.20;;;2.20;;
22460;SDS011;11397;48.410;11.468;2023-09-07T20:34:01;2.42;;;2.42;;
22460;SDS011;11397;48.410;11.468;2023-09-07T20:39:04;2.47;;;2.47;;
22460;SDS011;11397;48.410;11.468;2023-09-07T20:44:06;2.30;;;2.30;;
22460;SDS011;11397;48.410;11.468;2023-09-07T20:49:08;2.20;;;2.20;;
22460;SDS011;11397;48.410;11.468;2023-09-07T20:54:11;2.20;;;2.20;;
22460;SDS011;11397;48.410;11.468;2023-09-07T20:59:14;2.35;;;2.25;;
22460;SDS011;11397;48.410;11.468;2023-09-07T21:04:16;2.42;;;2.42;;
22460;SDS011;11397;48.410;11.468;2023-09-07T21:09:20;2.20;;;2.20;;
22460;SDS011;11397;48.410;11.468;2023-09-07T21:14:22;2.30;;;2.30;;
22460;SDS011;11397;48.410;11.468;2023-09-07T21:19:24;2.45;;;2.45;;
22460;SDS011;11397;48.410;11.468;2023-09-07T21:24:27;2.47;;;2.47;;
22460;SDS011;11397;48.410;11.468;2023-09-07T21:29:30;2.30;;;2.30;;
22460;SDS011;11397;48.410;11.468;2023-09-07T21:34:32;2.25;;;2.25;;
22460;SDS011;11397;48.410;11.468;2023-09-07T21:39:35;2.60;;;2.60;;
22460;SDS011;11397;48.410;11.468;2023-09-07T21:44:37;2.28;;;2.28;;
22460;SDS011;11397;48.410;11.468;2023-09-07T21:49:40;2.20;;;2.20;;
22460;SDS011;11397;48.410;11.468;2023-09-07T21:54:43;2.38;;;2.38;;
22460;SDS011;11397;48.410;11.468;2023-09-07T21:59:45;2.60;;;2.60;;
22460;SDS011;11397;48.410;11.468;2023-09-07T22:04:48;2.42;;;2.42;;
22460;SDS011;11397;48.410;11.468;2023-09-07T22:09:51;2.90;;;2.80;;
22460;SDS011;11397;48.410;11.468;2023-09-07T22:14:53;2.20;;;2.20;;
22460;SDS011;11397;48.410;11.468;2023-09-07T22:19:55;2.60;;;2.60;;
22460;SDS011;11397;48.410;11.468;2023-09-07T22:24:58;2.60;;;2.60;;
22460;SDS011;11397;48.410;11.468;2023-09-07T22:30:00;2.20;;;2.20;;
22460;SDS011;11397;48.410;11.468;2023-09-07T22:35:02;2.50;;;2.50;;
22460;SDS011;11397;48.410;11.468;2023-09-07T22:40:08;2.25;;;2.25;;
22460;SDS011;11397;48.410;11.468;2023-09-07T22:45:16;2.20;;;2.20;;
22460;SDS011;11397;48.410;11.468;2023-09-07T22:50:17;2.80;;;2.70;;
22460;SDS011;11397;48.410;11.468;2023-09-07T23:00:38;2.20;;;2.20;;
22460;SDS011;11397;48.410;11.468;2023-09-07T23:05:40;2.80;;;2.70;;
22460;SDS011;11397;48.410;11.468;2023-09-07T23:10:43;2.35;;;2.35;;
22460;SDS011;11397;48.410;11.468;2023-09-07T23:15:47;2.53;;;2.53;;
22460;SDS011;11397;48.410;11.468;2023-09-07T23:20:49;2.67;;;2.67;;
22460;SDS011;11397;48.410;11.468;2023-09-07T23:25:51;2.70;;;2.70;;
22460;SDS011;11397;48.410;11.468;2023-09-07T23:30:54;2.60;;;2.60;;
22460;SDS011;11397;48.410;11.468;2023-09-07T23:35:56;2.90;;;2.80;;
22460;SDS011;11397;48.410;11.468;2023-09-07T23:40:57;2.67;;;2.67;;
22460;SDS011;11397;48.410;11.468;2023-09-07T23:46:01;2.38;;;2.38;;
22460;SDS011;11397;48.410;11.468;2023-09-07T23:51:06;2.60;;;2.60;;
22460;SDS011;11397;48.410;11.468;2023-09-07T23:56:08;2.45;;;2.45;;
